Bellingham International Airport
KBLI : now visible

Airfield :











YOU CAN JOIN US ON...

 
LOGIN :

Register | Disclaimer

   EN    FR    IT 

 









Legend :    VFR   Marginal VFR   IFR   Intensive IFR   Very Intensive IFR
Visi :
Ceiling :
>= 8 km
>= 3000ft
5 to 8 km
1000 to 3000 ft
1500m to 5 km
500 to 1000 ft
800 to 1500m
200 to 500 ft
< 800m
< 200 ft
Symbols :   Thunderstorms  Fog  Heavy snow  Heavy precipitations  Wind > 20 kt






- Airport Elevation : 170 ft
- IATA code : BLI


KBLI - Bellingham International

CURRENT METAR :
  • 031053Z AUTO 20005KT 10SM CLR 16/13 A3010 RMK AO2 SLP198 T01610133

EXPIRED METARs :
  • 030953Z AUTO 21006KT 10SM SCT080 17/14 A3009 RMK AO2 SLP194 T01670139
  • 030853Z AUTO 22004KT 10SM FEW085 17/13 A3008 RMK AO2 SLP191 60000 T01670133 53004

TAF KBLI
Valid from the 03 at 06:00 until the 04 at 06:00 UTC


030522Z 0306/0406 20003KT P6SM BKN080 OVC120
FM031000 18008KT P6SM SCT020 BKN040
FM031200 18008KT P6SM SCT020 OVC040
TEMPO 0312/0316 -SHRA OVC020
FM032100 21007KT P6SM SCT025 BKN040
FM040100 18007KT P6SM SCT050
KZSE FIR / North America



MET'MAP, your aeronautical weather chart ! - Copyright ORBIFLY December 2007 - Disclaimer

ORBIFLY MET'MAP TEAM :

Programming & Development : Alexandra Zaïnal
Concept & original design : Baudouin d'Aumeries
Assistance for programming : Marc-Olivier Méhu
Technical & hardware support : Manuel Goepfert

Contact : metmap@orbifly.com




SOURCES & CREDITS :

   NOAA       Earth
Advisory